Terminal Aerodrome Forecast
Issued by NWS

Home | Current Version | Previous Version | Text Only | Print | Product List | Glossary On
Versions: 1 2 3 4 5 6 7 8 9 10 11 12 13 14 15 16 17 18 19 20 21 22 23
000
FTUS45 KCYS 281130 CCA
TAFAIA
TAF COR
KAIA 281130Z 2812/2912 12007KT 5SM BR SCT002
     FM281400 22008KT P6SM FEW030
     FM281900 19012KT P6SM SCT060=

USA.gov is the U.S. government's official web portal to all federal, state and local government web resources and services.